Time;durP1;ratioP1;P1;durP2;ratioP2;P2;SDS_P1;SDS_P2;PMS_P1;PMS_P2;Temp;Humidity;BMP_temperature;BMP_pressure;BME280_temperature;BME280_humidity;BME280_pressure;Samples;Min_cycle;Max_cycle;Signal;HPM_P1;HPM_P2
2023/01/12 00:01:23;;;;;;;11.43;2.90;;;;;;;7.42;100.00;100868.31;4846514;29;20045;-90
2023/01/12 00:03:50;;;;;;;10.70;3.10;;;;;;;7.48;100.00;100870.25;4865411;29;20025;-90
2023/01/12 00:06:18;;;;;;;10.50;3.30;;;;;;;7.54;100.00;100885.66;4843231;29;20085;-89
2023/01/12 00:08:43;;;;;;;12.77;3.37;;;;;;;7.52;100.00;100874.25;4834822;29;20037;-90
2023/01/12 00:11:09;;;;;;;14.17;3.87;;;;;;;7.54;100.00;100865.97;4862637;29;20509;-84
2023/01/12 00:13:34;;;;;;;11.50;3.50;;;;;;;7.53;100.00;100859.72;4826529;29;20075;-83
2023/01/12 00:18:46;;;;;;;13.63;3.30;;;;;;;7.70;100.00;100857.63;4842559;29;20093;-84
2023/01/12 00:21:11;;;;;;;11.67;3.23;;;;;;;7.68;100.00;100851.56;4860450;29;20033;-83
2023/01/12 00:23:38;;;;;;;13.50;3.77;;;;;;;7.76;100.00;100846.06;4842902;29;20460;-84
2023/01/12 00:26:05;;;;;;;13.37;3.63;;;;;;;7.78;100.00;100856.66;4830690;29;20442;-83
2023/01/12 00:28:31;;;;;;;14.17;3.90;;;;;;;7.77;100.00;100857.69;4860545;29;20041;-84
2023/01/12 00:31:00;;;;;;;12.93;3.30;;;;;;;7.80;100.00;100846.50;4855954;29;20038;-84
2023/01/12 00:33:26;;;;;;;12.33;3.30;;;;;;;7.82;100.00;100852.56;4848907;29;20058;-83
2023/01/12 00:35:51;;;;;;;15.30;3.67;;;;;;;7.75;100.00;100833.63;4826237;29;20045;-83
2023/01/12 00:38:18;;;;;;;14.67;3.70;;;;;;;7.77;100.00;100834.25;4844412;29;20113;-84
2023/01/12 00:40:43;;;;;;;10.73;2.90;;;;;;;7.77;100.00;100823.44;4819640;29;20037;-83
2023/01/12 00:45:52;;;;;;;16.38;3.85;;;;;;;7.81;100.00;100826.59;4850868;29;20048;-83
2023/01/12 00:48:18;;;;;;;15.10;3.87;;;;;;;7.83;100.00;100816.44;4846229;29;20486;-83
2023/01/12 00:50:45;;;;;;;11.97;3.17;;;;;;;7.76;100.00;100826.34;4844582;29;20033;-84
2023/01/12 00:53:11;;;;;;;14.97;3.60;;;;;;;7.78;100.00;100810.81;4831422;29;20033;-84
2023/01/12 00:55:36;;;;;;;17.10;4.20;;;;;;;7.86;100.00;100807.97;4846843;29;20033;-83
2023/01/12 00:58:02;;;;;;;14.63;3.80;;;;;;;7.85;100.00;100822.47;4844195;29;20061;-83
2023/01/12 01:00:27;;;;;;;16.10;4.60;;;;;;;7.87;100.00;100811.50;4856607;29;20045;-83
2023/01/12 01:02:53;;;;;;;18.07;4.40;;;;;;;7.82;100.00;100803.16;4855930;29;20072;-83
2023/01/12 01:05:18;;;;;;;17.43;4.47;;;;;;;7.73;100.00;100819.47;4860438;29;20028;-83
2023/01/12 01:07:45;;;;;;;13.63;3.57;;;;;;;7.78;100.00;100800.03;4835621;29;20071;-83
2023/01/12 01:10:11;;;;;;;17.23;3.60;;;;;;;7.72;100.00;100796.22;4843406;29;20045;-84
2023/01/12 01:12:36;;;;;;;15.43;3.93;;;;;;;7.71;100.00;100782.94;4841460;29;20072;-83
2023/01/12 01:15:02;;;;;;;14.70;3.40;;;;;;;7.77;100.00;100783.00;4859341;29;20075;-83
2023/01/12 01:17:27;;;;;;;17.20;3.67;;;;;;;7.76;100.00;100775.09;4850096;29;20036;-83
2023/01/12 01:19:53;;;;;;;14.00;4.00;;;;;;;7.71;100.00;100775.69;4841906;29;20029;-83
2023/01/12 01:22:19;;;;;;;16.80;4.07;;;;;;;7.74;100.00;100780.69;4840733;29;20033;-83
2023/01/12 01:24:44;;;;;;;16.83;4.10;;;;;;;7.77;100.00;100782.16;4828528;29;20112;-83
2023/01/12 01:27:09;;;;;;;17.03;3.97;;;;;;;7.71;100.00;100750.56;4840292;29;20030;-83
2023/01/12 01:29:35;;;;;;;17.30;3.80;;;;;;;7.69;100.00;100755.34;4831838;29;20113;-83
2023/01/12 01:32:00;;;;;;;16.53;4.20;;;;;;;7.72;100.00;100773.81;4860727;29;20056;-83
2023/01/12 01:34:26;;;;;;;17.00;4.73;;;;;;;7.64;100.00;100760.47;4814896;29;20029;-83
2023/01/12 01:36:51;;;;;;;18.63;5.23;;;;;;;7.66;100.00;100766.53;4827940;29;20077;-84
2023/01/12 01:39:17;;;;;;;16.57;4.60;;;;;;;7.65;100.00;100744.09;4822860;29;20552;-84
2023/01/12 01:41:42;;;;;;;19.53;4.67;;;;;;;7.66;100.00;100740.38;4829433;29;20061;-84
2023/01/12 01:44:29;;;;;;;18.57;4.43;;;;;;;7.68;100.00;100759.06;4839379;29;20646;-84
2023/01/12 01:46:57;;;;;;;22.90;5.20;;;;;;;7.67;100.00;100744.75;4863343;29;20029;-84
2023/01/12 01:49:29;;;;;;;19.80;4.17;;;;;;;7.66;100.00;100763.81;4844619;29;20401;-84
2023/01/12 01:52:13;;;;;;;17.23;4.67;;;;;;;7.68;100.00;100770.66;4862235;29;20043;-84
2023/01/12 01:54:42;;;;;;;18.13;5.07;;;;;;;7.66;100.00;100743.06;4845637;29;20036;-84
2023/01/12 01:57:10;;;;;;;17.53;5.13;;;;;;;7.72;100.00;100723.41;4861382;29;20036;-84
2023/01/12 01:59:39;;;;;;;19.37;4.83;;;;;;;7.74;100.00;100739.41;4844375;29;20029;-84
2023/01/12 02:02:05;;;;;;;21.47;5.07;;;;;;;7.68;100.00;100745.56;4862925;29;20040;-83
2023/01/12 02:04:31;;;;;;;19.50;4.63;;;;;;;7.70;100.00;100732.75;4819614;29;20398;-84
2023/01/12 02:07:00;;;;;;;23.23;5.90;;;;;;;7.59;100.00;100742.19;4841781;29;20036;-84
2023/01/12 02:09:26;;;;;;;21.03;4.87;;;;;;;7.63;100.00;100721.03;4864336;29;20037;-84
2023/01/12 02:17:45;;;;;;;16.17;3.90;;;;;;;7.64;100.00;100725.41;4860153;29;20270;-84
2023/01/12 02:20:19;;;;;;;18.42;4.00;;;;;;;7.66;100.00;100720.69;4857709;29;20026;-84
2023/01/12 02:22:44;;;;;;;;;;;;;;;7.78;100.00;100729.91;4843906;29;20081;-91
2023/01/12 02:25:28;;;;;;;20.63;4.60;;;;;;;7.60;100.00;100720.44;4852982;29;20399;-92
2023/01/12 02:28:25;;;;;;;18.90;4.72;;;;;;;7.59;100.00;100715.22;4840381;29;20041;-90
2023/01/12 02:31:12;;;;;;;21.63;5.00;;;;;;;7.57;100.00;100715.41;4844900;29;20029;-91
2023/01/12 02:33:40;;;;;;;17.87;4.83;;;;;;;7.59;100.00;100705.28;4845939;29;20037;-91
2023/01/12 02:36:22;;;;;;;20.60;4.60;;;;;;;7.61;100.00;100702.38;4830680;29;20101;-90
2023/01/12 02:38:54;;;;;;;18.50;4.53;;;;;;;7.60;100.00;100693.47;4846017;29;20116;-90
2023/01/12 02:44:38;;;;;;;21.37;4.63;;;;;;;7.68;100.00;100676.28;4791389;29;20122;-90
2023/01/12 02:47:08;;;;;;;21.90;4.43;;;;;;;7.64;100.00;100663.41;4864652;29;20043;-90
2023/01/12 02:49:41;;;;;;;22.43;4.80;;;;;;;7.68;100.00;100659.28;4865343;29;20025;-90
2023/01/12 02:52:11;;;;;;;20.10;4.90;;;;;;;7.72;100.00;100660.53;4845783;29;20077;-90
2023/01/12 02:54:40;;;;;;;20.50;4.27;;;;;;;7.71;100.00;100654.34;4847170;29;20022;-90
2023/01/12 02:57:07;;;;;;;19.20;4.67;;;;;;;7.73;100.00;100640.66;4845179;29;20040;-90
2023/01/12 02:59:49;;;;;;;21.80;4.77;;;;;;;7.78;100.00;100643.59;4846447;29;20029;-91
2023/01/12 03:02:18;;;;;;;16.83;3.83;;;;;;;7.80;100.00;100649.59;4864606;29;20037;-90
2023/01/12 03:04:44;;;;;;;17.10;3.87;;;;;;;7.78;100.00;100648.97;4850722;29;20022;-91
2023/01/12 03:07:36;;;;;;;16.23;4.10;;;;;;;7.81;100.00;100610.00;4832160;29;21040;-90
2023/01/12 03:10:34;;;;;;;18.13;3.90;;;;;;;7.83;100.00;100642.97;4864736;29;20089;-89
2023/01/12 03:13:05;;;;;;;16.77;3.90;;;;;;;7.74;100.00;100626.13;4860310;29;20048;-90
2023/01/12 03:15:34;;;;;;;20.13;4.50;;;;;;;7.76;100.00;100613.28;4846818;29;20093;-90
2023/01/12 03:18:08;;;;;;;17.47;3.93;;;;;;;7.75;100.00;100614.28;4845673;29;21045;-90
2023/01/12 03:20:38;;;;;;;18.63;4.10;;;;;;;7.78;100.00;100595.03;4858509;29;20026;-92
2023/01/12 03:23:13;;;;;;;17.47;3.70;;;;;;;7.75;100.00;100590.88;4849778;29;20029;-91
2023/01/12 03:25:42;;;;;;;17.53;4.27;;;;;;;7.84;100.00;100588.84;4862180;29;20061;-92
2023/01/12 03:28:10;;;;;;;17.67;3.43;;;;;;;7.83;100.00;100586.34;4844623;29;20531;-91
2023/01/12 03:30:39;;;;;;;17.23;3.97;;;;;;;7.76;100.00;100587.16;4849501;29;20034;-92
2023/01/12 03:33:06;;;;;;;15.43;4.17;;;;;;;7.76;100.00;100586.31;4848284;29;20460;-85
2023/01/12 03:35:37;;;;;;;12.57;3.40;;;;;;;7.77;100.00;100572.63;4859553;29;20029;-85
2023/01/12 03:38:15;;;;;;;17.53;3.60;;;;;;;7.83;100.00;100584.47;4860453;29;20120;-85
2023/01/12 03:40:55;;;;;;;19.63;4.03;;;;;;;7.87;100.00;100588.41;4848428;29;20426;-85
2023/01/12 03:43:33;;;;;;;16.77;4.20;;;;;;;7.82;100.00;100574.72;4835895;29;20371;-85
2023/01/12 03:46:26;;;;;;;13.67;3.40;;;;;;;7.85;100.00;100563.53;4841949;29;20088;-85
2023/01/12 03:48:59;;;;;;;13.97;3.87;;;;;;;7.83;100.00;100570.97;4831549;29;20037;-85
2023/01/12 03:51:29;;;;;;;13.13;3.17;;;;;;;7.80;100.00;100517.44;4847387;29;20247;-85
2023/01/12 03:53:56;;;;;;;17.93;3.90;;;;;;;7.79;100.00;100548.13;4846403;29;20521;-87
2023/01/12 03:56:26;;;;;;;13.90;3.20;;;;;;;7.84;100.00;100518.69;4843351;29;21762;-85
2023/01/12 03:58:52;;;;;;;12.60;3.40;;;;;;;7.85;100.00;100506.88;4850323;29;20033;-85
2023/01/12 04:01:17;;;;;;;12.50;2.77;;;;;;;7.80;100.00;100503.13;4851036;29;20021;-86
2023/01/12 04:03:43;;;;;;;15.67;3.30;;;;;;;7.83;100.00;100494.63;4852589;29;20018;-86
2023/01/12 04:06:08;;;;;;;12.27;3.20;;;;;;;7.83;100.00;100497.31;4849141;29;20052;-86
2023/01/12 04:08:34;;;;;;;12.27;2.93;;;;;;;7.81;100.00;100502.09;4862071;29;20097;-85
2023/01/12 04:12:08;;;;;;;15.07;3.80;;;;;;;7.82;100.00;100491.13;4862455;29;20136;-85
2023/01/12 04:13:45;;;;;;;10.93;2.90;;;;;;;7.80;100.00;100478.84;4866123;29;20101;-85
2023/01/12 04:16:10;;;;;;;14.67;3.27;;;;;;;7.78;100.00;100466.41;4864171;29;20108;-85
2023/01/12 04:18:35;;;;;;;17.20;3.87;;;;;;;7.80;100.00;100451.88;4837593;29;20041;-86
2023/01/12 04:21:01;;;;;;;15.10;3.37;;;;;;;7.81;100.00;100435.50;4851480;29;20037;-85
2023/01/12 04:23:26;;;;;;;13.50;3.33;;;;;;;7.82;100.00;100439.88;4852333;29;20030;-86
2023/01/12 04:25:51;;;;;;;16.60;5.07;;;;;;;7.72;100.00;100423.22;4850756;29;20053;-85
2023/01/12 04:28:17;;;;;;;17.90;4.00;;;;;;;7.73;100.00;100420.31;4849522;29;20033;-86
2023/01/12 04:30:42;;;;;;;14.90;4.10;;;;;;;7.75;100.00;100394.00;4868442;29;20104;-85
2023/01/12 04:33:08;;;;;;;15.10;3.70;;;;;;;7.76;100.00;100421.78;4849327;29;20034;-86
2023/01/12 04:35:33;;;;;;;12.73;3.43;;;;;;;7.79;100.00;100421.38;4838867;29;20402;-85
2023/01/12 04:38:04;;;;;;;15.23;3.73;;;;;;;7.81;100.00;100405.00;4869806;29;20146;-86
2023/01/12 04:40:30;;;;;;;12.83;3.80;;;;;;;7.74;100.00;100400.41;4848328;29;20025;-85
2023/01/12 04:43:03;;;;;;;15.13;4.60;;;;;;;7.67;100.00;100369.06;4851006;29;21013;-85
2023/01/12 04:45:37;;;;;;;15.47;3.97;;;;;;;7.66;100.00;100394.41;4859295;29;20022;-86
2023/01/12 04:48:09;;;;;;;14.68;3.95;;;;;;;7.68;100.00;100324.91;4850572;29;20029;-85
2023/01/12 04:50:35;;;;;;;15.07;3.40;;;;;;;7.67;100.00;100356.44;4839309;29;20524;-85
2023/01/12 04:53:02;;;;;;;12.50;3.37;;;;;;;7.75;100.00;100358.09;4845821;29;20037;-86
2023/01/12 04:55:28;;;;;;;12.13;3.53;;;;;;;7.79;100.00;100300.00;4843335;29;20033;-86
2023/01/12 04:57:53;;;;;;;8.23;2.83;;;;;;;7.72;100.00;100377.38;4847763;29;20036;-93
2023/01/12 05:00:19;;;;;;;16.73;3.80;;;;;;;7.71;100.00;100346.06;4848907;29;20034;-92
2023/01/12 05:02:44;;;;;;;11.97;3.40;;;;;;;7.78;100.00;100373.88;4850306;29;20449;-91
2023/01/12 05:05:10;;;;;;;10.80;2.70;;;;;;;7.70;100.00;100334.44;4834420;29;20390;-85
2023/01/12 05:07:35;;;;;;;14.63;3.23;;;;;;;7.69;100.00;100367.00;4852455;29;20052;-86
2023/01/12 05:12:44;;;;;;;15.07;3.47;;;;;;;7.68;100.00;100370.75;4866730;29;20055;-86
2023/01/12 05:15:10;;;;;;;12.00;2.90;;;;;;;7.66;100.00;100359.34;4862680;29;20433;-85
2023/01/12 05:17:35;;;;;;;16.37;3.83;;;;;;;7.66;100.00;100340.47;4836398;29;20021;-85
2023/01/12 05:20:01;;;;;;;15.00;3.30;;;;;;;7.76;100.00;100366.00;4861176;29;20375;-85
2023/01/12 05:22:26;;;;;;;14.00;3.50;;;;;;;7.81;100.00;100373.47;4862343;29;20034;-86
2023/01/12 05:24:52;;;;;;;14.87;3.80;;;;;;;7.74;100.00;100305.22;4859144;29;20392;-86
2023/01/12 05:27:17;;;;;;;14.97;3.77;;;;;;;7.77;100.00;100331.75;4861092;29;20057;-85
2023/01/12 05:29:42;;;;;;;12.47;2.97;;;;;;;7.74;100.00;100351.06;4848311;29;20036;-86
2023/01/12 05:32:08;;;;;;;13.90;3.57;;;;;;;7.75;100.00;100328.44;4846033;29;20034;-86
2023/01/12 05:34:33;;;;;;;14.63;3.20;;;;;;;7.65;100.00;100360.38;4848567;29;20029;-87
2023/01/12 05:36:59;;;;;;;14.13;2.83;;;;;;;7.71;100.00;100346.06;4844384;29;20502;-86
2023/01/12 05:39:24;;;;;;;11.73;2.67;;;;;;;7.72;100.00;100323.44;4844221;29;20037;-86
2023/01/12 05:44:33;;;;;;;14.87;3.27;;;;;;;7.78;100.00;100331.56;4844436;29;20124;-85
2023/01/12 05:46:59;;;;;;;15.83;3.77;;;;;;;7.78;100.00;100298.38;4844814;29;20308;-85
2023/01/12 05:49:24;;;;;;;13.37;3.43;;;;;;;7.76;100.00;100309.38;4845673;29;20025;-86
2023/01/12 05:51:50;;;;;;;14.57;2.97;;;;;;;7.72;100.00;100294.59;4840014;29;20034;-85
2023/01/12 05:54:15;;;;;;;14.03;3.37;;;;;;;7.77;100.00;100329.06;4845121;29;20069;-85
2023/01/12 05:56:41;;;;;;;12.03;2.90;;;;;;;7.71;100.00;100319.09;4843845;29;20117;-86
2023/01/12 05:59:09;;;;;;;11.47;2.87;;;;;;;7.74;100.00;100326.78;4841281;29;20060;-86
2023/01/12 06:01:35;;;;;;;16.77;3.10;;;;;;;7.70;100.00;100309.34;4844805;29;20425;-86
2023/01/12 06:04:00;;;;;;;13.60;2.90;;;;;;;7.77;100.00;100307.50;4842550;29;20030;-85
2023/01/12 06:06:31;;;;;;;12.20;2.77;;;;;;;7.73;100.00;100314.34;4846045;29;20022;-86
2023/01/12 06:08:58;;;;;;;12.43;3.17;;;;;;;7.75;100.00;100301.44;4845408;29;20030;-86
2023/01/12 06:14:08;;;;;;;10.20;2.20;;;;;;;7.81;100.00;100316.00;4846892;29;20049;-86
2023/01/12 06:16:37;;;;;;;8.10;2.37;;;;;;;7.81;100.00;100311.44;4826793;29;20038;-86
2023/01/12 06:19:03;;;;;;;11.63;2.90;;;;;;;7.80;100.00;100300.84;4845171;29;20072;-86
2023/01/12 06:21:31;;;;;;;7.37;2.50;;;;;;;7.86;100.00;100311.66;4845101;29;20491;-86
2023/01/12 06:23:56;;;;;;;9.73;2.30;;;;;;;7.82;100.00;100305.00;4845187;29;20425;-86
2023/01/12 06:26:22;;;;;;;8.00;2.40;;;;;;;7.84;100.00;100320.97;4844553;29;20098;-86
2023/01/12 06:28:47;;;;;;;8.80;2.47;;;;;;;7.85;100.00;100306.47;4849061;29;20458;-85
2023/01/12 06:31:13;;;;;;;10.40;2.50;;;;;;;7.80;100.00;100317.03;4838010;29;20037;-86
2023/01/12 06:33:39;;;;;;;8.63;2.20;;;;;;;7.86;100.00;100325.13;4851174;29;20041;-86
2023/01/12 06:36:04;;;;;;;10.13;2.60;;;;;;;7.87;100.00;100312.47;4856293;29;20046;-85
2023/01/12 06:38:32;;;;;;;7.87;2.27;;;;;;;8.00;100.00;100314.34;4844323;29;20146;-86
2023/01/12 06:41:05;;;;;;;8.43;2.20;;;;;;;7.94;100.00;100318.69;4841724;29;21064;-85
2023/01/12 06:43:31;;;;;;;4.73;1.70;;;;;;;8.01;100.00;100305.19;4844093;29;20029;-85
2023/01/12 06:45:57;;;;;;;9.20;2.40;;;;;;;8.03;100.00;100311.22;4844174;29;20101;-86
2023/01/12 06:48:24;;;;;;;7.53;2.03;;;;;;;8.01;100.00;100314.13;4842771;29;21731;-85
2023/01/12 06:50:57;;;;;;;6.97;2.03;;;;;;;8.10;100.00;100339.88;4846268;29;20501;-85
2023/01/12 06:53:22;;;;;;;6.07;1.80;;;;;;;8.10;100.00;100301.25;4846564;29;20026;-86
2023/01/12 06:55:49;;;;;;;5.57;1.90;;;;;;;8.09;100.00;100326.56;4850563;29;20042;-85
2023/01/12 06:58:14;;;;;;;6.97;1.90;;;;;;;8.06;100.00;100327.00;4841036;29;20030;-85
2023/01/12 07:00:40;;;;;;;4.83;1.70;;;;;;;8.07;100.00;100317.88;4848726;29;20112;-86
2023/01/12 07:03:05;;;;;;;7.33;1.87;;;;;;;8.09;100.00;100321.16;4827483;29;20078;-85
2023/01/12 07:05:31;;;;;;;4.60;1.90;;;;;;;8.16;100.00;100326.56;4827723;29;20040;-86
2023/01/12 07:07:59;;;;;;;6.00;2.07;;;;;;;8.12;100.00;100315.38;4843733;29;20405;-86
2023/01/12 07:10:26;;;;;;;6.80;2.00;;;;;;;8.13;100.00;100321.59;4845489;29;20029;-85
2023/01/12 07:12:51;;;;;;;5.13;2.00;;;;;;;8.15;100.00;100339.25;4843295;29;20061;-87
2023/01/12 07:15:17;;;;;;;6.37;1.70;;;;;;;8.15;100.00;100322.22;4843737;29;20029;-86
2023/01/12 07:17:42;;;;;;;5.43;1.80;;;;;;;8.14;100.00;100307.06;4840713;29;20099;-86
2023/01/12 07:20:08;;;;;;;6.60;2.03;;;;;;;8.17;100.00;100326.34;4840182;29;20090;-86
2023/01/12 07:22:33;;;;;;;6.73;2.20;;;;;;;8.17;100.00;100328.22;4842895;29;20120;-85
2023/01/12 07:24:59;;;;;;;5.07;1.80;;;;;;;8.16;100.00;100284.25;4827032;29;20529;-85
2023/01/12 07:27:24;;;;;;;6.03;2.03;;;;;;;8.24;100.00;100329.06;4840913;29;20030;-85
2023/01/12 07:29:49;;;;;;;7.43;2.07;;;;;;;8.23;100.00;100324.72;4829657;29;20136;-86
2023/01/12 07:32:15;;;;;;;5.43;1.93;;;;;;;8.24;100.00;100327.19;4849248;29;20033;-86
2023/01/12 07:34:40;;;;;;;6.77;2.37;;;;;;;8.19;100.00;100345.88;4842223;29;20121;-86
2023/01/12 07:37:06;;;;;;;5.57;1.80;;;;;;;8.22;100.00;100339.25;4849150;29;20082;-86
2023/01/12 07:39:31;;;;;;;6.70;1.90;;;;;;;8.22;100.00;100323.88;4847890;29;20410;-85
2023/01/12 07:44:40;;;;;;;3.90;1.70;;;;;;;8.25;100.00;100355.00;4840107;29;20064;-86
2023/01/12 07:47:06;;;;;;;6.37;1.80;;;;;;;8.23;100.00;100354.41;4841579;29;20030;-85
2023/01/12 07:49:31;;;;;;;4.07;1.73;;;;;;;8.21;100.00;100368.06;4842906;29;20025;-85
2023/01/12 07:51:57;;;;;;;4.50;1.50;;;;;;;8.25;100.00;100369.34;4859946;29;20048;-86
2023/01/12 07:54:23;;;;;;;5.43;1.80;;;;;;;8.29;100.00;100361.66;4846140;29;20045;-86
2023/01/12 07:56:48;;;;;;;4.70;2.10;;;;;;;8.32;100.00;100363.09;4852347;29;20964;-86
2023/01/12 07:59:14;;;;;;;5.30;2.07;;;;;;;8.27;100.00;100361.88;4830362;29;20036;-86
2023/01/12 08:01:39;;;;;;;4.17;1.90;;;;;;;8.28;100.00;100355.44;4848286;29;20100;-86
2023/01/12 08:04:05;;;;;;;3.90;1.63;;;;;;;8.28;100.00;100360.84;4850544;29;20105;-86
2023/01/12 08:06:31;;;;;;;4.37;2.00;;;;;;;8.31;100.00;100367.69;4844694;29;20028;-86
2023/01/12 08:08:56;;;;;;;3.40;1.83;;;;;;;8.36;100.00;100369.75;4844859;29;20057;-86
2023/01/12 08:11:22;;;;;;;7.10;2.10;;;;;;;8.38;100.00;100371.19;4860677;29;20024;-85
2023/01/12 08:13:53;;;;;;;4.23;1.80;;;;;;;8.39;100.00;100374.72;4865365;29;20475;-86
2023/01/12 08:16:23;;;;;;;6.83;2.07;;;;;;;8.35;100.00;100379.72;4849093;29;20025;-86
2023/01/12 08:19:08;;;;;;;8.23;2.03;;;;;;;8.36;100.00;100367.03;4857676;29;20036;-86
2023/01/12 08:21:44;;;;;;;4.20;1.77;;;;;;;8.38;100.00;100367.69;4845888;29;20022;-86
2023/01/12 08:24:11;;;;;;;7.27;2.10;;;;;;;8.41;100.00;100381.56;4842407;29;20025;-86
2023/01/12 08:26:41;;;;;;;4.57;1.87;;;;;;;8.45;100.00;100371.22;4848309;29;20834;-86
2023/01/12 08:29:13;;;;;;;4.57;1.90;;;;;;;8.44;100.00;100361.44;4842401;29;20037;-86
2023/01/12 08:31:39;;;;;;;3.80;1.97;;;;;;;8.47;100.00;100361.03;4854787;29;20043;-86
2023/01/12 08:34:06;;;;;;;3.73;1.83;;;;;;;8.47;100.00;100388.03;4845383;29;20112;-86
2023/01/12 08:36:33;;;;;;;6.10;1.93;;;;;;;8.48;100.00;100365.41;4829422;29;20109;-86
2023/01/12 08:39:00;;;;;;;4.83;1.97;;;;;;;8.47;100.00;100369.13;4818948;29;20041;-92
2023/01/12 08:41:32;;;;;;;5.57;2.13;;;;;;;8.51;100.00;100397.38;4861945;29;20100;-92
2023/01/12 08:44:00;;;;;;;2.57;1.60;;;;;;;8.58;100.00;100395.53;4834923;29;20898;-92
2023/01/12 08:46:28;;;;;;;3.23;1.60;;;;;;;8.62;100.00;100393.22;4847976;29;20377;-91
2023/01/12 08:48:54;;;;;;;3.27;1.80;;;;;;;8.66;100.00;100401.72;4845697;29;20032;-92
2023/01/12 08:51:19;;;;;;;3.90;1.80;;;;;;;8.71;100.00;100399.22;4838010;29;20086;-93
2023/01/12 08:53:46;;;;;;;5.30;1.70;;;;;;;8.67;100.00;100414.19;4851169;29;20029;-93
2023/01/12 08:56:11;;;;;;;3.10;1.70;;;;;;;8.65;100.00;100405.47;4860787;29;20570;-92
2023/01/12 08:58:37;;;;;;;3.37;1.90;;;;;;;8.72;100.00;100398.19;4829512;29;20045;-92
2023/01/12 09:01:10;;;;;;;3.90;1.97;;;;;;;8.71;100.00;100401.94;4868234;29;20109;-92
2023/01/12 09:03:37;;;;;;;3.47;1.83;;;;;;;8.72;100.00;100412.53;4847956;29;20054;-90
2023/01/12 09:06:10;;;;;;;4.23;2.03;;;;;;;8.75;100.00;100419.38;4854589;29;20025;-92
2023/01/12 09:08:35;;;;;;;2.90;1.93;;;;;;;8.81;100.00;100413.13;4839469;29;20053;-91
2023/01/12 09:11:03;;;;;;;4.03;1.90;;;;;;;8.79;100.00;100407.94;4830428;29;20491;-92
2023/01/12 09:13:28;;;;;;;2.60;1.90;;;;;;;8.79;100.00;100416.03;4867649;29;20500;-92
2023/01/12 09:15:54;;;;;;;4.93;2.20;;;;;;;8.87;100.00;100403.38;4837800;29;20037;-91
2023/01/12 09:18:19;;;;;;;4.37;1.90;;;;;;;8.89;100.00;100406.66;4833152;29;20034;-92
2023/01/12 09:20:45;;;;;;;2.60;1.73;;;;;;;8.85;100.00;100414.34;4829951;29;20118;-93
2023/01/12 09:23:10;;;;;;;3.90;1.90;;;;;;;8.87;100.00;100417.69;4844467;29;20452;-91
2023/01/12 09:25:35;;;;;;;2.53;1.80;;;;;;;8.84;100.00;100430.78;4831890;29;20077;-92
2023/01/12 09:28:01;;;;;;;2.80;1.70;;;;;;;8.89;100.00;100412.91;4817544;29;21014;-91
2023/01/12 09:30:29;;;;;;;2.27;1.83;;;;;;;8.89;100.00;100422.88;4809192;29;20093;-93
2023/01/12 09:32:54;;;;;;;3.10;1.80;;;;;;;8.94;100.00;100423.91;4824247;29;20036;-93
2023/01/12 09:35:20;;;;;;;2.00;1.57;;;;;;;8.97;100.00;100416.44;4824559;29;20422;-92
2023/01/12 09:37:46;;;;;;;3.07;1.70;;;;;;;8.93;100.00;100427.66;4849423;29;20056;-90
2023/01/12 09:40:16;;;;;;;2.07;1.67;;;;;;;8.89;100.00;100431.81;4821317;29;20427;-92
2023/01/12 09:48:20;;;;;;;3.60;1.75;;;;;;;8.86;100.00;100448.44;4862369;29;20036;-93
2023/01/12 09:51:03;;;;;;;2.67;1.97;;;;;;;8.88;100.00;100454.47;4846436;29;20032;-93
2023/01/12 09:53:37;;;;;;;4.63;1.70;;;;;;;8.87;100.00;100449.28;4835959;29;20033;-92
2023/01/12 09:56:33;;;;;;;2.80;1.47;;;;;;;8.95;100.00;100460.69;4841937;29;20044;-92
2023/01/12 09:59:24;;;;;;;2.00;1.67;;;;;;;8.99;100.00;100460.28;4859913;29;20174;-92
2023/01/12 10:01:52;;;;;;;2.83;1.80;;;;;;;9.00;100.00;100460.06;4846407;29;20044;-92
2023/01/12 10:04:17;;;;;;;2.70;1.53;;;;;;;9.01;100.00;100463.59;4844868;29;20969;-91
2023/01/12 10:06:43;;;;;;;2.50;1.30;;;;;;;9.02;100.00;100465.28;4840249;29;20038;-93
2023/01/12 10:09:17;;;;;;;1.93;1.33;;;;;;;9.03;100.00;100461.50;4846119;29;20049;-93
2023/01/12 10:11:54;;;;;;;3.40;1.50;;;;;;;9.08;100.00;100442.78;4834541;29;20490;-92
2023/01/12 10:14:32;;;;;;;1.33;1.13;;;;;;;9.01;100.00;100464.44;4851362;29;20402;-91
2023/01/12 10:17:08;;;;;;;1.57;1.10;;;;;;;9.03;100.00;100462.34;4846117;29;20025;-93
2023/01/12 10:19:57;;;;;;;1.67;1.00;;;;;;;9.07;100.00;100460.03;4832275;29;20033;-92
2023/01/12 10:22:37;;;;;;;1.63;1.20;;;;;;;9.02;100.00;100470.69;4844373;29;20390;-91
2023/01/12 10:25:26;;;;;;;2.23;1.13;;;;;;;9.00;100.00;100473.56;4839401;29;20056;-92
2023/01/12 10:27:54;;;;;;;1.73;1.20;;;;;;;9.00;100.00;100472.75;4840760;29;20077;-93
2023/01/12 10:30:19;;;;;;;1.27;1.17;;;;;;;9.00;100.00;100473.56;4859397;29;20505;-93
2023/01/12 10:32:45;;;;;;;1.47;1.10;;;;;;;8.94;100.00;100469.03;4837584;29;20033;-93
2023/01/12 10:35:20;;;;;;;4.20;1.83;;;;;;;8.93;100.00;100473.59;4840973;29;20098;-92
2023/01/12 10:37:55;;;;;;;1.33;1.23;;;;;;;8.98;100.00;100464.84;4855727;29;20049;-92
2023/01/12 10:40:32;;;;;;;3.30;1.30;;;;;;;9.01;100.00;100475.22;4824009;29;20033;-92
2023/01/12 10:43:30;;;;;;;2.57;1.17;;;;;;;9.01;100.00;100469.00;4856705;29;20021;-87
2023/01/12 10:46:10;;;;;;;1.30;1.20;;;;;;;9.00;100.00;100465.47;4857284;29;20037;-86
2023/01/12 10:48:38;;;;;;;1.97;1.03;;;;;;;9.03;100.00;100464.22;4840384;29;20033;-86
2023/01/12 10:51:07;;;;;;;1.63;1.10;;;;;;;8.99;100.00;100476.47;4839083;29;20033;-87
2023/01/12 10:53:43;;;;;;;1.50;1.00;;;;;;;8.97;100.00;100478.59;4834792;29;20469;-86
2023/01/12 10:56:35;;;;;;;1.73;1.23;;;;;;;9.01;100.00;100472.53;4852391;29;20401;-87
2023/01/12 10:59:09;;;;;;;1.67;1.03;;;;;;;9.02;100.00;100466.09;4846513;29;20057;-87
2023/01/12 11:02:02;;;;;;;2.35;1.00;;;;;;;8.99;100.00;100436.81;4838155;29;20132;-86
2023/01/12 11:04:28;;;;;;;2.97;1.33;;;;;;;9.01;100.00;100460.91;4856039;29;20068;-86
2023/01/12 11:07:14;;;;;;;1.43;1.10;;;;;;;9.05;100.00;100459.44;4838006;29;20089;-87
2023/01/12 11:09:42;;;;;;;2.33;1.03;;;;;;;9.04;100.00;100463.19;4836655;29;20036;-87
2023/01/12 11:12:40;;;;;;;1.63;1.00;;;;;;;9.07;100.00;100451.94;4855762;29;20528;-86
2023/01/12 11:15:08;;;;;;;1.43;1.33;;;;;;;9.13;100.00;100467.31;4836015;29;20045;-86
2023/01/12 11:17:58;;;;;;;2.07;1.20;;;;;;;9.16;100.00;100460.66;4839481;29;20435;-86
2023/01/12 11:20:48;;;;;;;0.80;0.80;;;;;;;9.17;100.00;100460.44;4854507;29;20037;-85
2023/01/12 11:23:17;;;;;;;1.13;1.13;;;;;;;9.13;100.00;100457.31;4853964;29;20375;-85
2023/01/12 11:25:46;;;;;;;1.47;1.30;;;;;;;9.16;100.00;100468.78;4843358;29;20033;-85
2023/01/12 11:28:19;;;;;;;2.43;1.30;;;;;;;9.16;100.00;100461.47;4848102;29;20036;-85
2023/01/12 11:31:09;;;;;;;2.07;1.30;;;;;;;9.21;100.00;100463.56;4858900;29;20033;-85
2023/01/12 11:33:43;;;;;;;2.77;1.30;;;;;;;9.22;100.00;100457.09;4841513;29;20068;-85
2023/01/12 11:36:16;;;;;;;2.55;1.13;;;;;;;9.27;100.00;100449.19;4843404;29;20103;-86
2023/01/12 11:38:48;;;;;;;1.53;1.20;;;;;;;9.26;100.00;100453.78;4840677;29;20056;-85
2023/01/12 11:41:36;;;;;;;1.87;1.13;;;;;;;9.29;100.00;100458.75;4844583;29;20089;-86
2023/01/12 11:44:13;;;;;;;2.60;1.20;;;;;;;9.23;100.00;100465.03;4842967;29;20064;-85
2023/01/12 11:46:48;;;;;;;1.30;1.20;;;;;;;9.21;100.00;100456.28;4858280;29;20033;-85
2023/01/12 11:49:24;;;;;;;2.53;1.37;;;;;;;9.24;100.00;100453.13;4858110;29;20029;-86
2023/01/12 11:51:56;;;;;;;1.93;1.40;;;;;;;9.21;100.00;100469.78;4842107;29;20033;-86
2023/01/12 11:54:24;;;;;;;1.60;1.40;;;;;;;9.18;100.00;100461.25;4844415;29;20144;-86
2023/01/12 11:57:27;;;;;;;2.83;1.30;;;;;;;9.31;100.00;100463.13;4841333;29;20097;-85
2023/01/12 12:00:35;;;;;;;1.00;1.00;;;;;;;9.24;100.00;100463.13;4843883;29;20033;-85
2023/01/12 12:03:13;;;;;;;1.37;1.27;;;;;;;9.20;100.00;100456.50;4861228;29;20025;-86
2023/01/12 12:06:06;;;;;;;2.40;1.53;;;;;;;9.24;100.00;100420.69;4850665;29;20029;-86